Time;durP1;ratioP1;P1;durP2;ratioP2;P2;SDS_P1;SDS_P2;PMS_P1;PMS_P2;Temp;Humidity;BMP_temperature;BMP_pressure;BME280_temperature;BME280_humidity;BME280_pressure;Samples;Min_cycle;Max_cycle;Signal;HPM_P1;HPM_P2
2022/10/04 00:01:53;;;;;;;3.88;1.40;;;11.10;99.90;;;;;;4808556;29;20210;-88
2022/10/04 00:04:25;;;;;;;6.00;1.77;;;11.10;99.90;;;;;;4809591;29;20175;-88
2022/10/04 00:07:06;;;;;;;4.97;1.70;;;11.10;99.90;;;;;;4823040;29;20536;-88
2022/10/04 00:09:54;;;;;;;3.92;1.50;;;11.10;99.90;;;;;;4811492;29;20230;-88
2022/10/04 00:12:33;;;;;;;4.18;1.55;;;11.10;99.90;;;;;;4811268;29;20246;-88
2022/10/04 00:15:05;;;;;;;4.28;1.73;;;11.10;99.90;;;;;;4811554;29;20174;-88
2022/10/04 00:17:34;;;;;;;12.82;2.05;;;11.10;99.90;;;;;;4811298;29;20518;-87
2022/10/04 00:20:03;;;;;;;4.85;2.00;;;11.00;99.90;;;;;;4827097;29;20610;-87
2022/10/04 00:22:30;;;;;;;6.97;2.00;;;11.00;99.90;;;;;;4810647;29;20225;-87
2022/10/04 00:25:06;;;;;;;4.25;2.00;;;11.00;99.90;;;;;;4827094;29;20178;-87
2022/10/04 00:27:34;;;;;;;6.10;1.90;;;10.90;99.90;;;;;;4827088;29;20273;-88
2022/10/04 00:30:03;;;;;;;7.32;1.75;;;10.90;99.90;;;;;;4811138;29;20186;-87
2022/10/04 00:32:39;;;;;;;7.75;1.98;;;10.90;99.90;;;;;;4826877;29;20185;-87
2022/10/04 00:35:24;;;;;;;6.97;1.95;;;10.80;99.90;;;;;;4810041;29;20326;-87
2022/10/04 00:38:18;;;;;;;4.00;1.73;;;10.80;99.90;;;;;;4826676;29;20210;-87
2022/10/04 00:41:05;;;;;;;4.07;1.52;;;10.90;99.90;;;;;;4807615;29;20209;-87
2022/10/04 00:43:46;;;;;;;6.63;1.75;;;10.80;99.90;;;;;;4810641;29;20219;-87
2022/10/04 00:46:22;;;;;;;5.15;1.50;;;10.80;99.90;;;;;;4810481;29;20277;-87
2022/10/04 00:48:59;;;;;;;6.43;1.90;;;10.80;99.90;;;;;;4810452;29;20566;-86
2022/10/04 00:51:41;;;;;;;8.55;1.95;;;10.80;99.90;;;;;;4810147;29;20235;-87
2022/10/04 00:54:11;;;;;;;4.93;1.42;;;10.80;99.90;;;;;;4807290;29;20270;-88
2022/10/04 00:56:49;;;;;;;2.58;1.40;;;10.80;99.90;;;;;;4806986;29;20183;-89
2022/10/04 00:59:24;;;;;;;8.23;1.75;;;10.80;99.90;;;;;;4807327;29;20232;-87
2022/10/04 01:02:01;;;;;;;5.93;1.55;;;10.80;99.90;;;;;;4807251;29;20189;-87
2022/10/04 01:04:38;;;;;;;9.60;2.20;;;10.80;99.90;;;;;;4806781;29;20186;-88
2022/10/04 01:07:09;;;;;;;9.35;1.45;;;10.80;99.90;;;;;;4808199;29;20218;-86
2022/10/04 01:09:45;;;;;;;8.05;1.75;;;10.80;99.90;;;;;;4806925;29;20182;-87
2022/10/04 01:12:42;;;;;;;6.85;1.85;;;10.80;99.90;;;;;;4807109;29;20618;-88
2022/10/04 01:15:16;;;;;;;9.45;1.83;;;10.80;99.90;;;;;;4807658;29;20214;-88
2022/10/04 01:18:11;;;;;;;4.22;1.50;;;10.70;99.90;;;;;;4807054;29;20191;-87
2022/10/04 01:20:48;;;;;;;5.22;1.52;;;10.70;99.90;;;;;;4805366;29;20195;-87
2022/10/04 01:23:32;;;;;;;6.93;1.67;;;10.70;99.90;;;;;;4806875;29;20187;-88
2022/10/04 01:25:58;;;;;;;7.35;1.45;;;10.70;99.90;;;;;;4806983;29;20210;-87
2022/10/04 01:28:25;;;;;;;3.78;1.45;;;10.70;99.90;;;;;;4808143;29;20214;-88
2022/10/04 01:30:52;;;;;;;8.25;1.65;;;10.80;99.90;;;;;;4807958;29;20247;-87
2022/10/04 01:33:18;;;;;;;4.50;1.15;;;10.80;99.90;;;;;;4806687;29;20739;-86
2022/10/04 01:35:44;;;;;;;3.42;1.60;;;10.80;99.90;;;;;;4806576;29;20198;-87
2022/10/04 01:38:11;;;;;;;4.32;1.67;;;10.80;99.90;;;;;;4806444;29;20233;-86
2022/10/04 01:41:01;;;;;;;12.20;1.70;;;10.80;99.90;;;;;;4807988;29;20166;-87
2022/10/04 01:43:34;;;;;;;5.45;1.30;;;10.80;99.90;;;;;;4806508;29;20573;-88
2022/10/04 01:46:09;;;;;;;7.28;1.80;;;10.80;99.90;;;;;;4806696;29;20260;-88
2022/10/04 01:48:37;;;;;;;8.90;1.77;;;10.80;99.90;;;;;;4806513;29;20178;-88
2022/10/04 01:51:17;;;;;;;6.63;1.67;;;10.80;99.90;;;;;;4807842;29;20239;-88
2022/10/04 01:54:10;;;;;;;6.60;1.50;;;10.80;99.90;;;;;;4804774;29;20222;-87
2022/10/04 01:56:54;;;;;;;4.53;1.45;;;10.90;99.90;;;;;;4806476;29;20711;-86
2022/10/04 01:59:25;;;;;;;6.57;1.60;;;10.80;99.90;;;;;;4806264;29;20243;-86
2022/10/04 02:02:00;;;;;;;6.25;1.17;;;10.90;99.90;;;;;;4806207;29;20198;-87
2022/10/04 02:04:31;;;;;;;9.18;1.20;;;10.90;99.90;;;;;;4806082;29;20247;-86
2022/10/04 02:06:59;;;;;;;4.18;1.20;;;10.90;99.90;;;;;;4808289;29;20193;-87
2022/10/04 02:09:34;;;;;;;7.95;1.38;;;10.90;99.90;;;;;;4809620;29;20174;-87
2022/10/04 02:12:01;;;;;;;5.22;1.30;;;10.90;99.90;;;;;;4825866;29;20205;-88
2022/10/04 02:14:34;;;;;;;4.47;1.30;;;10.90;99.90;;;;;;4825399;29;20225;-88
2022/10/04 02:17:09;;;;;;;6.97;1.80;;;10.90;99.90;;;;;;4809320;29;20219;-88
2022/10/04 02:19:37;;;;;;;4.75;1.65;;;11.00;99.90;;;;;;4825471;29;20161;-88
2022/10/04 02:22:06;;;;;;;9.27;1.80;;;11.00;99.90;;;;;;4809206;29;20682;-88
2022/10/04 02:24:34;;;;;;;5.95;1.63;;;10.90;99.90;;;;;;4825497;29;20235;-88
2022/10/04 02:27:00;;;;;;;6.93;1.92;;;10.90;99.90;;;;;;4809124;29;20190;-87
2022/10/04 02:29:26;;;;;;;5.82;2.10;;;10.90;99.90;;;;;;4809248;29;20195;-88
2022/10/04 02:34:36;;;;;;;5.72;1.60;;;10.90;99.90;;;;;;4825490;29;20270;-88
2022/10/04 02:37:04;;;;;;;6.32;1.75;;;10.90;99.90;;;;;;4792863;29;20343;-88
2022/10/04 02:39:39;;;;;;;5.45;2.00;;;10.90;99.90;;;;;;4791143;29;20186;-87
2022/10/04 02:42:36;;;;;;;10.48;2.33;;;10.90;99.90;;;;;;4791079;29;20178;-87
2022/10/04 02:45:38;;;;;;;5.50;1.98;;;10.80;99.90;;;;;;4790878;29;20193;-86
2022/10/04 02:48:21;;;;;;;8.88;1.73;;;10.90;99.90;;;;;;4783722;29;20194;-87
2022/10/04 02:50:51;;;;;;;6.78;2.00;;;10.90;99.90;;;;;;4791253;29;20182;-87
2022/10/04 02:53:25;;;;;;;5.63;1.75;;;10.90;99.90;;;;;;4808563;29;20329;-88
2022/10/04 02:55:53;;;;;;;3.15;1.30;;;10.80;99.90;;;;;;4825241;29;20236;-87
2022/10/04 02:58:22;;;;;;;7.10;1.77;;;10.80;99.90;;;;;;4825152;29;20185;-86
2022/10/04 03:00:59;;;;;;;8.52;1.83;;;10.80;99.90;;;;;;4808886;29;20178;-87
2022/10/04 03:03:38;;;;;;;6.15;1.63;;;10.90;99.90;;;;;;4808860;29;20174;-88
2022/10/04 03:06:08;;;;;;;4.65;2.15;;;10.90;99.90;;;;;;4808742;29;20200;-87
2022/10/04 03:08:46;;;;;;;7.40;1.80;;;10.80;99.90;;;;;;4808400;29;20171;-88
2022/10/04 03:11:14;;;;;;;7.72;1.70;;;10.80;99.90;;;;;;4809078;29;20209;-87
2022/10/04 03:13:45;;;;;;;8.23;2.08;;;10.80;99.90;;;;;;4808593;29;20363;-88
2022/10/04 03:16:12;;;;;;;10.95;2.17;;;10.80;99.90;;;;;;4808653;29;20182;-88
2022/10/04 03:18:38;;;;;;;10.73;2.28;;;10.80;99.90;;;;;;4810147;29;20209;-88
2022/10/04 03:21:07;;;;;;;8.32;1.55;;;10.80;99.90;;;;;;4812116;29;20254;-86
2022/10/04 03:23:33;;;;;;;4.68;1.85;;;10.80;99.90;;;;;;4827818;29;20204;-87
2022/10/04 03:26:23;;;;;;;7.00;1.92;;;10.80;99.90;;;;;;4827018;29;20190;-88
2022/10/04 03:28:49;;;;;;;5.80;1.85;;;10.80;99.90;;;;;;4811849;29;20186;-87
2022/10/04 03:31:15;;;;;;;6.47;1.38;;;10.80;99.90;;;;;;4812023;29;20286;-87
2022/10/04 03:33:43;;;;;;;3.28;1.58;;;10.80;99.90;;;;;;4811620;29;20705;-88
2022/10/04 03:36:18;;;;;;;5.45;1.63;;;10.90;99.90;;;;;;4811681;29;20201;-87
2022/10/04 03:38:50;;;;;;;8.30;1.67;;;10.80;99.90;;;;;;4811419;29;20193;-86
2022/10/04 03:41:17;;;;;;;5.13;1.50;;;10.80;99.90;;;;;;4811780;29;20193;-88
2022/10/04 03:43:50;;;;;;;3.90;1.45;;;10.90;99.90;;;;;;4811513;29;20190;-87
2022/10/04 03:46:18;;;;;;;5.20;1.63;;;10.80;99.90;;;;;;4827608;29;20249;-87
2022/10/04 03:48:49;;;;;;;3.80;1.40;;;10.80;99.90;;;;;;4811516;29;20189;-87
2022/10/04 03:51:25;;;;;;;2.38;1.35;;;10.80;99.90;;;;;;4810719;29;20189;-87
2022/10/04 03:53:55;;;;;;;7.32;1.58;;;10.80;99.90;;;;;;4811209;29;20241;-88
2022/10/04 03:56:24;;;;;;;2.10;1.20;;;10.80;99.90;;;;;;4811302;29;20614;-88
2022/10/04 03:58:51;;;;;;;8.98;1.50;;;10.90;99.90;;;;;;4811216;29;20235;-87
2022/10/04 04:01:32;;;;;;;5.38;1.75;;;10.90;99.90;;;;;;4811283;29;20174;-87
2022/10/04 04:04:17;;;;;;;4.75;1.50;;;10.90;99.90;;;;;;4811345;29;20174;-87
2022/10/04 04:07:06;;;;;;;6.20;1.50;;;10.90;99.90;;;;;;4811120;29;20205;-87
2022/10/04 04:09:38;;;;;;;6.28;1.40;;;10.90;99.90;;;;;;4811397;29;20238;-87
2022/10/04 04:12:12;;;;;;;7.22;1.35;;;10.90;99.90;;;;;;4811122;29;20196;-87
2022/10/04 04:14:40;;;;;;;5.32;1.40;;;10.90;99.90;;;;;;4827221;29;20549;-86
2022/10/04 04:17:45;;;;;;;6.85;1.30;;;10.90;99.90;;;;;;4811288;29;20273;-86
2022/10/04 04:20:52;;;;;;;3.75;1.35;;;10.80;99.90;;;;;;4810982;29;20318;-86
2022/10/04 04:23:31;;;;;;;6.82;1.77;;;10.80;99.90;;;;;;4753196;30;20633;-88
2022/10/04 04:26:18;;;;;;;4.45;1.25;;;10.80;99.90;;;;;;4802409;29;20233;-87
2022/10/04 04:28:49;;;;;;;3.97;1.35;;;10.80;99.90;;;;;;4810898;29;20174;-88
2022/10/04 04:31:47;;;;;;;3.85;1.05;;;10.80;99.90;;;;;;4806426;29;20194;-85
2022/10/04 04:34:51;;;;;;;7.68;1.55;;;10.80;99.90;;;;;;4806565;29;20290;-86
2022/10/04 04:37:19;;;;;;;6.30;1.48;;;10.80;99.90;;;;;;4806637;29;20247;-87
2022/10/04 04:39:53;;;;;;;5.75;1.42;;;10.80;99.90;;;;;;4807769;29;20201;-88
2022/10/04 04:42:28;;;;;;;8.20;1.65;;;10.80;99.90;;;;;;4807573;29;20189;-86
2022/10/04 04:44:59;;;;;;;8.07;1.30;;;10.80;99.90;;;;;;4807186;29;20187;-86
2022/10/04 04:47:32;;;;;;;6.80;1.55;;;10.80;99.90;;;;;;4807635;29;20631;-87
2022/10/04 04:50:07;;;;;;;3.60;1.40;;;10.80;99.90;;;;;;4808704;29;20216;-87
2022/10/04 04:52:35;;;;;;;2.60;1.02;;;10.80;99.90;;;;;;4807223;29;20668;-87
2022/10/04 04:55:02;;;;;;;5.10;1.23;;;10.80;99.90;;;;;;4803842;29;20778;-87
2022/10/04 04:57:29;;;;;;;7.13;1.58;;;10.80;99.90;;;;;;4790490;29;20179;-87
2022/10/04 04:59:58;;;;;;;6.88;1.90;;;10.80;99.90;;;;;;4807034;29;20223;-87
2022/10/04 05:02:36;;;;;;;5.63;1.60;;;10.80;99.90;;;;;;4806985;29;20195;-87
2022/10/04 05:05:27;;;;;;;3.50;1.10;;;10.80;99.90;;;;;;4807027;29;20194;-86
2022/10/04 05:08:11;;;;;;;5.68;1.30;;;10.80;99.90;;;;;;4807106;29;20374;-86
2022/10/04 05:10:41;;;;;;;4.50;1.35;;;10.80;99.90;;;;;;4816641;29;20265;-87
2022/10/04 05:13:09;;;;;;;5.07;1.45;;;10.80;99.90;;;;;;4823942;29;20286;-87
2022/10/04 05:15:37;;;;;;;8.10;1.42;;;10.80;99.90;;;;;;4806012;29;20246;-87
2022/10/04 05:18:27;;;;;;;7.72;2.10;;;10.80;99.90;;;;;;4806801;29;20199;-88
2022/10/04 05:20:54;;;;;;;5.53;1.33;;;10.80;99.90;;;;;;4799878;29;20198;-86
2022/10/04 05:23:22;;;;;;;8.98;1.65;;;10.80;99.90;;;;;;4802850;29;20638;-85
2022/10/04 05:25:50;;;;;;;5.35;1.60;;;10.80;99.90;;;;;;4805441;29;20595;-87
2022/10/04 05:28:17;;;;;;;3.97;1.45;;;10.80;99.90;;;;;;4807583;29;20339;-87
2022/10/04 05:31:02;;;;;;;7.60;1.30;;;10.80;99.90;;;;;;4804923;29;20202;-88
2022/10/04 05:33:48;;;;;;;4.45;1.48;;;10.80;99.90;;;;;;4804620;29;20214;-88
2022/10/04 05:36:23;;;;;;;5.93;1.40;;;10.80;99.90;;;;;;4807149;29;20182;-87
2022/10/04 05:39:04;;;;;;;4.78;1.38;;;10.80;99.90;;;;;;4806235;29;20185;-87
2022/10/04 05:41:38;;;;;;;4.57;1.50;;;10.80;99.90;;;;;;4807026;29;20178;-87
2022/10/04 05:44:27;;;;;;;6.22;1.42;;;10.80;99.90;;;;;;4805638;29;20179;-88
2022/10/04 05:47:05;;;;;;;4.60;1.52;;;10.80;99.90;;;;;;4805680;29;20198;-87
2022/10/04 05:49:44;;;;;;;5.07;1.40;;;10.80;99.90;;;;;;4806995;29;20173;-87
2022/10/04 05:52:32;;;;;;;4.95;1.33;;;10.90;99.90;;;;;;4805624;29;20266;-86
2022/10/04 05:55:25;;;;;;;5.20;1.25;;;10.90;99.90;;;;;;4805496;29;20277;-88
2022/10/04 05:57:53;;;;;;;5.57;1.77;;;10.90;99.90;;;;;;4807068;29;20204;-87
2022/10/04 06:00:20;;;;;;;4.65;1.60;;;10.90;99.90;;;;;;4806668;29;20191;-87
2022/10/04 06:03:08;;;;;;;4.90;1.63;;;10.90;99.90;;;;;;4805662;29;20187;-88
2022/10/04 06:05:43;;;;;;;4.70;1.55;;;10.90;99.90;;;;;;4805570;29;20171;-87
2022/10/04 06:08:14;;;;;;;6.10;1.45;;;10.90;99.90;;;;;;4805718;29;20174;-87
2022/10/04 06:10:48;;;;;;;9.48;1.50;;;10.90;99.90;;;;;;4805471;29;20179;-87
2022/10/04 06:13:36;;;;;;;6.32;1.50;;;10.90;99.90;;;;;;4805821;29;20228;-87
2022/10/04 06:16:46;;;;;;;8.80;1.73;;;10.90;99.90;;;;;;4804736;29;20190;-86
2022/10/04 06:19:27;;;;;;;6.45;1.40;;;11.00;99.90;;;;;;4796992;29;20593;-87
2022/10/04 06:22:10;;;;;;;7.40;1.65;;;10.90;99.90;;;;;;4806544;29;20179;-87
2022/10/04 06:24:39;;;;;;;4.00;1.45;;;11.00;99.90;;;;;;4805143;29;20255;-87
2022/10/04 06:27:15;;;;;;;7.35;2.20;;;11.00;99.90;;;;;;4805338;29;20182;-87
2022/10/04 06:29:51;;;;;;;6.97;1.67;;;11.00;99.90;;;;;;4805484;29;20263;-87
2022/10/04 06:32:25;;;;;;;4.70;1.58;;;11.00;99.90;;;;;;4805442;29;20285;-87
2022/10/04 06:35:06;;;;;;;7.38;1.55;;;11.00;99.90;;;;;;4804872;29;20204;-88
2022/10/04 06:37:57;;;;;;;13.18;1.80;;;11.10;99.90;;;;;;4805287;29;20583;-87
2022/10/04 06:40:39;;;;;;;7.25;1.67;;;11.10;99.90;;;;;;4805285;29;20639;-88
2022/10/04 06:43:25;;;;;;;7.18;1.85;;;11.10;99.90;;;;;;4804767;29;20317;-87
2022/10/04 06:46:06;;;;;;;6.82;1.60;;;11.10;99.90;;;;;;4804887;29;20194;-87
2022/10/04 06:49:09;;;;;;;5.18;1.50;;;11.20;99.90;;;;;;4805629;29;20551;-87
2022/10/04 06:52:26;;;;;;;5.63;1.52;;;11.20;99.90;;;;;;4803301;29;20251;-87
2022/10/04 06:54:54;;;;;;;6.57;1.92;;;11.30;99.90;;;;;;4771412;30;20267;-87
2022/10/04 06:57:51;;;;;;;6.38;1.92;;;11.30;99.90;;;;;;4756930;30;20549;-86
2022/10/04 07:00:24;;;;;;;11.05;1.60;;;11.30;99.90;;;;;;4797746;29;20195;-86
2022/10/04 07:03:15;;;;;;;7.03;1.70;;;11.40;99.90;;;;;;4808733;29;20236;-87
2022/10/04 07:05:53;;;;;;;6.88;1.65;;;11.40;99.90;;;;;;4823234;29;20186;-88
2022/10/04 07:08:31;;;;;;;8.85;1.70;;;11.50;99.90;;;;;;4808480;29;20190;-88
2022/10/04 07:11:04;;;;;;;5.57;1.60;;;11.50;99.90;;;;;;4808529;29;20253;-84
2022/10/04 07:13:43;;;;;;;3.58;1.30;;;11.60;99.90;;;;;;4809738;29;20213;-86
2022/10/04 07:16:21;;;;;;;5.30;1.67;;;11.60;99.90;;;;;;4808395;29;20282;-86
2022/10/04 07:19:17;;;;;;;7.82;1.92;;;11.70;99.90;;;;;;4809229;29;20257;-84
2022/10/04 07:22:15;;;;;;;4.85;1.77;;;11.70;99.90;;;;;;4807756;29;20289;-85
2022/10/04 07:24:58;;;;;;;8.90;2.00;;;11.80;99.90;;;;;;4806353;29;20199;-84
2022/10/04 07:27:37;;;;;;;6.68;1.75;;;11.80;99.90;;;;;;4808062;29;20182;-84
2022/10/04 07:30:10;;;;;;;8.00;1.70;;;11.90;99.90;;;;;;4808069;29;20193;-84
2022/10/04 07:32:43;;;;;;;7.30;1.70;;;11.90;99.90;;;;;;4804885;29;20524;-85
2022/10/04 07:35:08;;;;;;;10.30;2.05;;;11.90;99.90;;;;;;4789714;30;20183;-83
2022/10/04 07:38:04;;;;;;;9.77;2.10;;;11.90;99.90;;;;;;4789880;29;20504;-85
2022/10/04 07:40:37;;;;;;;2.72;1.50;;;11.90;99.90;;;;;;4791185;29;20207;-84
2022/10/04 07:43:20;;;;;;;5.93;1.88;;;12.00;99.90;;;;;;4791086;29;20223;-85
2022/10/04 07:45:48;;;;;;;6.32;1.65;;;12.00;99.90;;;;;;4789996;30;20194;-85
2022/10/04 07:48:21;;;;;;;9.85;1.92;;;12.00;99.90;;;;;;4804886;29;20215;-85
2022/10/04 07:51:08;;;;;;;6.45;1.90;;;12.00;99.90;;;;;;4790965;29;20250;-84
2022/10/04 07:53:47;;;;;;;7.32;1.65;;;12.00;99.90;;;;;;4790865;29;20553;-83
2022/10/04 07:56:21;;;;;;;6.78;1.55;;;12.00;99.90;;;;;;4793914;29;20198;-85
2022/10/04 07:58:56;;;;;;;9.40;2.03;;;12.10;99.90;;;;;;4825336;29;20277;-84
2022/10/04 08:01:45;;;;;;;6.05;1.80;;;12.10;99.90;;;;;;4819720;29;20235;-85
2022/10/04 08:04:53;;;;;;;8.20;2.13;;;12.20;99.90;;;;;;4809733;29;20166;-89
2022/10/04 08:07:30;;;;;;;7.88;2.30;;;12.30;99.90;;;;;;4826828;29;20630;-87
2022/10/04 08:10:29;;;;;;;8.95;2.00;;;12.40;99.90;;;;;;4810503;29;20190;-86
2022/10/04 08:13:05;;;;;;;7.93;2.15;;;12.50;99.90;;;;;;4803809;29;20320;-86
2022/10/04 08:15:41;;;;;;;7.28;2.40;;;12.60;99.90;;;;;;4820555;29;20216;-86
2022/10/04 08:18:25;;;;;;;10.60;2.10;;;12.60;99.90;;;;;;4819000;29;20640;-86
2022/10/04 08:21:05;;;;;;;18.08;2.30;;;12.60;99.90;;;;;;4823443;29;20572;-87
2022/10/04 08:23:55;;;;;;;7.13;1.83;;;12.60;99.90;;;;;;4813039;29;20311;-86
2022/10/04 08:26:52;;;;;;;8.48;1.55;;;12.60;99.90;;;;;;4809904;29;20174;-85
2022/10/04 08:29:41;;;;;;;4.93;1.63;;;12.60;99.90;;;;;;4820655;29;20194;-86
2022/10/04 08:32:22;;;;;;;7.90;1.92;;;12.60;99.90;;;;;;4809843;29;20190;-85
2022/10/04 08:35:15;;;;;;;6.75;1.65;;;12.70;99.90;;;;;;4809681;29;20221;-88
2022/10/04 08:37:59;;;;;;;7.03;2.05;;;12.80;99.90;;;;;;4809436;29;20273;-86
2022/10/04 08:40:49;;;;;;;10.80;2.67;;;12.90;99.90;;;;;;4826360;29;20258;-85
2022/10/04 08:43:50;;;;;;;10.75;2.20;;;12.90;99.90;;;;;;4807878;29;20179;-85
2022/10/04 08:46:21;;;;;;;3.65;1.50;;;13.00;99.90;;;;;;4791669;29;20209;-85
2022/10/04 08:48:59;;;;;;;8.23;1.80;;;13.00;99.90;;;;;;4808004;29;20178;-85
2022/10/04 08:51:49;;;;;;;7.90;2.03;;;13.10;99.90;;;;;;4811155;29;20193;-84
2022/10/04 08:54:41;;;;;;;5.85;1.83;;;13.40;99.90;;;;;;4799020;29;20268;-85
2022/10/04 08:57:10;;;;;;;7.65;1.95;;;13.50;99.90;;;;;;4824934;29;20268;-85
2022/10/04 09:00:09;;;;;;;7.07;2.40;;;13.60;99.90;;;;;;4824420;29;20229;-85
2022/10/04 09:03:11;;;;;;;13.30;2.53;;;13.60;99.90;;;;;;4809443;29;20189;-85
2022/10/04 09:05:47;;;;;;;5.80;1.95;;;13.50;99.90;;;;;;4835635;29;20193;-85
2022/10/04 09:08:40;;;;;;;6.82;1.80;;;13.50;99.90;;;;;;4825708;29;20614;-85
2022/10/04 09:11:31;;;;;;;11.02;2.10;;;13.40;99.90;;;;;;4824628;29;20186;-84
2022/10/04 09:14:25;;;;;;;6.40;2.00;;;13.40;99.90;;;;;;4824567;29;20229;-86
2022/10/04 09:17:06;;;;;;;10.98;2.28;;;13.30;99.90;;;;;;4823715;29;20543;-85
2022/10/04 09:20:02;;;;;;;5.90;2.17;;;13.30;99.90;;;;;;4824487;29;20190;-86
2022/10/04 09:22:48;;;;;;;8.35;2.38;;;13.40;99.90;;;;;;4825129;29;20186;-86
2022/10/04 09:25:17;;;;;;;7.72;2.33;;;13.40;99.90;;;;;;4825612;29;20166;-85
2022/10/04 09:28:04;;;;;;;8.75;2.38;;;13.50;99.90;;;;;;4824123;29;20194;-87
2022/10/04 09:31:05;;;;;;;6.45;2.28;;;13.50;99.90;;;;;;4825266;29;20190;-86
2022/10/04 09:33:36;;;;;;;10.20;2.40;;;13.60;99.90;;;;;;4825508;29;20213;-86
2022/10/04 09:36:05;;;;;;;5.03;1.90;;;13.70;99.90;;;;;;4808695;29;20387;-87
2022/10/04 09:39:08;;;;;;;8.70;2.40;;;13.80;99.90;;;;;;4825337;29;20182;-88
2022/10/04 09:41:46;;;;;;;14.82;2.40;;;13.90;99.90;;;;;;4825276;29;20256;-88
2022/10/04 09:44:33;;;;;;;15.00;2.40;;;14.00;99.90;;;;;;4825465;29;20166;-85
2022/10/04 09:47:20;;;;;;;10.15;2.20;;;14.10;99.90;;;;;;4808888;29;20186;-86
2022/10/04 09:49:55;;;;;;;7.70;2.30;;;14.20;99.90;;;;;;4824905;29;20221;-87
2022/10/04 09:52:52;;;;;;;9.02;1.92;;;14.30;99.90;;;;;;4812953;29;20221;-85
2022/10/04 09:55:54;;;;;;;7.45;1.80;;;14.40;99.90;;;;;;4824817;29;20229;-89
2022/10/04 09:58:47;;;;;;;8.68;1.73;;;14.60;99.90;;;;;;4821668;29;20526;-87
2022/10/04 10:02:00;;;;;;;6.57;1.70;;;14.60;99.90;;;;;;4790608;29;20261;-87
2022/10/04 10:04:38;;;;;;;6.40;1.70;;;14.70;99.90;;;;;;4790172;29;20203;-86
2022/10/04 10:07:06;;;;;;;11.20;2.00;;;14.70;99.90;;;;;;4806713;29;20662;-85
2022/10/04 10:16:28;;;;;;;6.05;2.13;;;15.00;99.90;;;;;;4794365;29;20213;-85
2022/10/04 10:18:59;;;;;;;8.15;2.00;;;15.00;99.90;;;;;;4824604;29;20268;-87
2022/10/04 10:21:46;;;;;;;10.25;2.42;;;15.10;99.90;;;;;;4820937;29;20228;-86
2022/10/04 10:24:42;;;;;;;9.55;2.15;;;15.10;99.90;;;;;;4808588;29;20617;-87
2022/10/04 10:28:00;;;;;;;10.63;2.35;;;15.00;99.90;;;;;;4823442;29;20196;-88
2022/10/04 10:30:38;;;;;;;9.48;2.40;;;15.10;99.90;;;;;;4767572;30;20543;-87
2022/10/04 10:33:21;;;;;;;7.10;2.10;;;15.20;99.90;;;;;;4768513;30;20219;-87
2022/10/04 10:36:31;;;;;;;10.75;2.35;;;15.20;99.90;;;;;;4796068;29;20216;-86
2022/10/04 10:39:36;;;;;;;9.18;1.83;;;15.40;99.90;;;;;;4768855;29;20196;-84
2022/10/04 10:42:20;;;;;;;12.30;1.92;;;15.60;99.90;;;;;;4807792;29;20189;-86
2022/10/04 10:45:08;;;;;;;9.95;1.73;;;15.80;99.90;;;;;;4842642;29;20181;-86
2022/10/04 10:47:52;;;;;;;10.68;1.67;;;15.80;99.90;;;;;;4826597;29;20181;-85
2022/10/04 10:50:26;;;;;;;7.82;1.40;;;15.90;99.90;;;;;;4789983;29;20182;-86
2022/10/04 10:53:09;;;;;;;6.70;1.52;;;15.80;99.90;;;;;;4789866;29;20198;-89
2022/10/04 10:56:13;;;;;;;4.95;1.50;;;15.80;99.90;;;;;;4817453;29;20241;-86
2022/10/04 10:59:00;;;;;;;4.78;1.13;;;15.80;99.90;;;;;;4823392;29;20201;-85
2022/10/04 11:01:59;;;;;;;8.90;1.35;;;15.90;99.90;;;;;;4811540;29;20223;-88
2022/10/04 11:04:44;;;;;;;6.70;1.55;;;15.90;99.90;;;;;;4824436;29;20174;-86
2022/10/04 11:07:38;;;;;;;4.25;1.60;;;16.00;99.90;;;;;;4807899;29;20186;-85
2022/10/04 11:10:13;;;;;;;10.18;1.60;;;16.00;99.90;;;;;;4824235;29;20210;-84
2022/10/04 11:12:42;;;;;;;8.90;2.10;;;16.10;99.90;;;;;;4808364;29;20636;-85
2022/10/04 11:15:35;;;;;;;6.40;1.60;;;16.00;99.90;;;;;;4807828;29;20212;-85
2022/10/04 11:18:39;;;;;;;7.30;1.10;;;15.90;99.90;;;;;;4806273;29;20209;-86
2022/10/04 11:21:26;;;;;;;5.57;0.95;;;16.10;99.90;;;;;;4807340;29;20189;-86
2022/10/04 11:24:12;;;;;;;6.72;1.33;;;16.30;99.90;;;;;;4824298;29;20386;-85
2022/10/04 11:27:09;;;;;;;6.68;1.20;;;16.30;99.90;;;;;;4819994;29;20230;-85
2022/10/04 11:29:50;;;;;;;8.32;1.58;;;16.40;99.90;;;;;;4823895;29;20166;-86
2022/10/04 11:32:47;;;;;;;4.20;1.30;;;16.50;99.90;;;;;;4822508;29;20196;-84
2022/10/04 11:35:35;;;;;;;6.90;1.27;;;16.70;99.90;;;;;;4807919;29;20206;-86
2022/10/04 11:38:19;;;;;;;4.45;1.10;;;16.90;99.90;;;;;;4814837;29;20523;-85
2022/10/04 11:41:16;;;;;;;5.68;1.23;;;17.00;99.90;;;;;;4810472;29;20193;-86
2022/10/04 11:44:01;;;;;;;5.43;1.38;;;17.10;99.90;;;;;;4827063;29;20277;-85
2022/10/04 11:46:59;;;;;;;3.72;1.27;;;17.20;99.90;;;;;;4827163;29;20605;-87
2022/10/04 11:49:56;;;;;;;4.63;1.48;;;17.20;99.90;;;;;;4810931;29;20187;-88
2022/10/04 11:52:43;;;;;;;8.57;1.65;;;17.00;99.90;;;;;;4826492;29;20209;-85
2022/10/04 11:55:34;;;;;;;5.32;1.40;;;16.90;99.90;;;;;;4826832;29;20678;-85
2022/10/04 11:58:38;;;;;;;6.05;1.48;;;16.80;99.90;;;;;;4810699;29;20194;-84
2022/10/04 12:01:30;;;;;;;6.90;1.27;;;16.90;99.90;;;;;;4819996;29;20229;-85
2022/10/04 12:04:02;;;;;;;6.40;1.10;;;17.10;99.90;;;;;;4810448;29;20509;-88
2022/10/04 12:06:37;;;;;;;3.70;1.02;;;17.10;99.90;;;;;;4809911;29;20190;-86
2022/10/04 12:09:29;;;;;;;7.30;1.20;;;17.10;99.90;;;;;;4827032;29;20188;-87
2022/10/04 12:15:34;;;;;;;3.35;1.17;;;17.20;99.90;;;;;;4826630;29;20233;-85
2022/10/04 12:18:19;;;;;;;8.18;1.38;;;17.30;99.90;;;;;;4755757;30;20207;-86
2022/10/04 12:21:08;;;;;;;5.90;1.00;;;17.30;99.90;;;;;;4807459;29;20198;-86
2022/10/04 12:23:52;;;;;;;5.78;1.08;;;17.30;99.90;;;;;;4810072;29;20186;-87
2022/10/04 12:26:55;;;;;;;4.65;1.45;;;17.40;99.90;;;;;;4810391;29;20182;-85
2022/10/04 12:29:32;;;;;;;6.55;1.52;;;17.40;99.90;;;;;;4810202;29;20185;-87
2022/10/04 12:32:16;;;;;;;3.75;1.40;;;17.40;99.90;;;;;;4806702;29;20182;-89
2022/10/04 12:35:00;;;;;;;4.20;1.48;;;17.50;99.90;;;;;;4815117;29;20240;-87
2022/10/04 12:37:32;;;;;;;3.92;1.15;;;17.60;99.90;;;;;;4826126;29;20581;-86
2022/10/04 12:40:19;;;;;;;5.82;1.48;;;17.50;99.90;;;;;;4826016;29;20190;-85
2022/10/04 12:42:57;;;;;;;4.55;1.48;;;17.60;99.90;;;;;;4824739;29;20273;-87
2022/10/04 12:45:55;;;;;;;4.28;1.25;;;17.70;99.90;;;;;;4825031;29;20218;-86
2022/10/04 12:48:42;;;;;;;3.25;1.30;;;17.70;99.90;;;;;;4825177;29;20190;-87
2022/10/04 12:51:36;;;;;;;2.70;1.08;;;17.70;99.90;;;;;;4823896;29;20181;-86
2022/10/04 12:54:17;;;;;;;3.42;1.52;;;17.70;99.90;;;;;;4809518;29;20234;-84
2022/10/04 12:56:57;;;;;;;4.97;1.20;;;17.60;99.90;;;;;;4809934;29;20268;-87
2022/10/04 13:00:00;;;;;;;5.07;1.38;;;17.60;99.90;;;;;;4809857;29;20182;-85
2022/10/04 13:02:32;;;;;;;6.00;1.40;;;17.70;99.90;;;;;;4791680;29;20175;-89
2022/10/04 13:05:01;;;;;;;6.15;1.40;;;17.80;99.90;;;;;;4823610;29;20211;-88
2022/10/04 13:08:04;;;;;;;6.20;1.90;;;17.80;99.90;;;;;;4824434;29;20186;-85
2022/10/04 13:10:46;;;;;;;5.20;1.70;;;17.90;99.90;;;;;;4824719;29;20187;-86
2022/10/04 13:13:33;;;;;;;4.45;1.50;;;17.90;99.90;;;;;;4824717;29;20217;-86
2022/10/04 13:16:33;;;;;;;2.38;1.20;;;17.90;99.90;;;;;;4824549;29;20186;-85
2022/10/04 13:19:23;;;;;;;8.70;1.50;;;17.90;99.90;;;;;;4824682;29;20182;-86
2022/10/04 13:22:27;;;;;;;3.58;1.30;;;18.00;99.90;;;;;;4823430;29;20194;-86
2022/10/04 13:25:17;;;;;;;4.00;1.58;;;18.10;99.90;;;;;;4824448;29;20310;-85
2022/10/04 13:27:51;;;;;;;3.95;1.42;;;18.20;99.90;;;;;;4825499;29;20182;-85
2022/10/04 13:30:52;;;;;;;4.50;1.27;;;18.20;99.90;;;;;;4821631;29;20299;-86
2022/10/04 13:33:44;;;;;;;4.30;1.63;;;18.10;99.90;;;;;;4824804;29;20240;-85
2022/10/04 13:36:15;;;;;;;4.32;1.63;;;18.10;99.80;;;;;;4808945;29;20606;-86
2022/10/04 13:38:44;;;;;;;9.18;1.95;;;18.00;99.90;;;;;;4833012;29;20299;-85
2022/10/04 13:41:19;;;;;;;5.50;2.25;;;18.00;99.90;;;;;;4828381;29;20186;-84
2022/10/04 13:44:14;;;;;;;4.60;1.60;;;18.10;99.90;;;;;;4824405;29;20185;-86
2022/10/04 13:47:07;;;;;;;6.78;1.80;;;18.20;99.90;;;;;;4825410;29;20175;-85
2022/10/04 13:50:02;;;;;;;6.38;1.50;;;18.10;99.70;;;;;;4824291;29;20517;-84
2022/10/04 14:09:22;;;;;;;8.32;1.85;;;18.10;99.90;;;;;;4789207;30;20622;-84
2022/10/04 14:12:31;;;;;;;5.93;1.67;;;18.10;99.90;;;;;;4788993;29;20271;-84
2022/10/04 14:15:27;;;;;;;7.40;1.88;;;18.00;99.90;;;;;;4787258;30;20252;-83
2022/10/04 14:18:08;;;;;;;7.55;1.95;;;18.00;99.90;;;;;;4788944;30;20526;-83
2022/10/04 14:20:44;;;;;;;4.85;1.67;;;18.00;99.90;;;;;;4802509;29;20659;-84
2022/10/04 14:23:34;;;;;;;4.50;1.60;;;18.00;99.90;;;;;;4788677;29;20506;-83
2022/10/04 14:26:29;;;;;;;5.30;1.70;;;17.90;99.60;;;;;;4788790;29;20183;-83
2022/10/04 14:29:17;;;;;;;8.07;1.70;;;17.80;99.90;;;;;;4787701;30;20620;-84